Mc Grann, Pennsylvania
Current Conditions -  °F | °C
As of 12:35 AM on Wednesday 22 Oct 2014 (Local Time) from KBTP Reporting Station
Overcast Overcast  
Wind Chill: 46°   Ceiling: 1100
Heat Index: 46°   Visibility: 9mi
Dew Point: 45°   Wind: 3mph
Humidity: 93%   Direction: 330°NNW
Pressure: 30.04"   Gusts: NA
Location:  40.7796°N, 79.5234°W
Report Text: KBTP 220435Z AUTO 33003KT 9SM BKN011 OVC023 08/07 A3004 RMK AO1
Loading
Personal Weather Stations






























Interactive Weather Map
Tropical Storm Tracking
New forecast layout! Learn more

10-Day Weather Forecast

Advertisements
Track Severe Weather on mobile